sensor_id;sensor_type;location;lat;lon;timestamp;pressure;altitude;pressure_sealevel;temperature;humidity
43804;BME280;29430;52.924;-2.388;2023-03-03T00:01:02;100537.09;;;4.67;76.76
43804;BME280;29430;52.924;-2.388;2023-03-03T00:05:54;100539.63;;;4.69;76.47
43804;BME280;29430;52.924;-2.388;2023-03-03T00:10:46;100536.94;;;4.69;76.07
43804;BME280;29430;52.924;-2.388;2023-03-03T00:15:38;100542.47;;;4.67;76.27
43804;BME280;29430;52.924;-2.388;2023-03-03T00:20:32;100538.94;;;4.66;76.77
43804;BME280;29430;52.924;-2.388;2023-03-03T00:30:24;100550.84;;;4.64;76.83
43804;BME280;29430;52.924;-2.388;2023-03-03T00:35:28;100541.78;;;4.65;77.61
43804;BME280;29430;52.924;-2.388;2023-03-03T00:40:23;100539.09;;;4.65;77.73
43804;BME280;29430;52.924;-2.388;2023-03-03T00:45:46;100536.63;;;4.72;77.85
43804;BME280;29430;52.924;-2.388;2023-03-03T00:50:39;100545.66;;;4.71;78.05
43804;BME280;29430;52.924;-2.388;2023-03-03T00:55:31;100543.84;;;4.71;77.80
43804;BME280;29430;52.924;-2.388;2023-03-03T01:00:23;100545.66;;;4.71;78.15
43804;BME280;29430;52.924;-2.388;2023-03-03T01:05:16;100552.91;;;4.70;77.74
43804;BME280;29430;52.924;-2.388;2023-03-03T01:23:08;100569.44;;;4.57;77.54
43804;BME280;29430;52.924;-2.388;2023-03-03T01:28:00;100563.38;;;4.55;77.79
43804;BME280;29430;52.924;-2.388;2023-03-03T01:32:52;100572.44;;;4.54;78.06
43804;BME280;29430;52.924;-2.388;2023-03-03T01:37:44;100568.75;;;4.55;78.17
43804;BME280;29430;52.924;-2.388;2023-03-03T01:42:36;100562.69;;;4.53;78.29
43804;BME280;29430;52.924;-2.388;2023-03-03T01:47:33;100570.44;;;4.56;77.70
43804;BME280;29430;52.924;-2.388;2023-03-03T01:52:38;100559.84;;;4.55;77.77
43804;BME280;29430;52.924;-2.388;2023-03-03T01:57:36;100567.75;;;4.56;78.14
43804;BME280;29430;52.924;-2.388;2023-03-03T02:02:30;100557.16;;;4.55;78.34
43804;BME280;29430;52.924;-2.388;2023-03-03T02:07:24;100557.31;;;4.53;78.35
43804;BME280;29430;52.924;-2.388;2023-03-03T02:12:21;100555.63;;;4.52;78.68
43804;BME280;29430;52.924;-2.388;2023-03-03T02:17:13;100564.72;;;4.51;78.50
43804;BME280;29430;52.924;-2.388;2023-03-03T02:22:05;100563.16;;;4.48;77.47
43804;BME280;29430;52.924;-2.388;2023-03-03T02:26:57;100557.75;;;4.40;77.14
43804;BME280;29430;52.924;-2.388;2023-03-03T02:31:49;100557.19;;;4.37;76.82
43804;BME280;29430;52.924;-2.388;2023-03-03T02:36:41;100549.13;;;4.37;77.15
43804;BME280;29430;52.924;-2.388;2023-03-03T02:58:59;100566.66;;;4.23;76.66
43804;BME280;29430;52.924;-2.388;2023-03-03T03:03:51;100557.91;;;4.21;77.06
43804;BME280;29430;52.924;-2.388;2023-03-03T03:08:43;100563.59;;;4.18;76.95
43804;BME280;29430;52.924;-2.388;2023-03-03T03:13:34;100555.69;;;4.16;77.03
43804;BME280;29430;52.924;-2.388;2023-03-03T03:18:26;100554.16;;;4.13;77.18
43804;BME280;29430;52.924;-2.388;2023-03-03T03:23:18;100553.94;;;4.07;76.48
43804;BME280;29430;52.924;-2.388;2023-03-03T03:28:14;100552.41;;;4.04;76.68
43804;BME280;29430;52.924;-2.388;2023-03-03T03:33:06;100565.31;;;4.01;77.02
43804;BME280;29430;52.924;-2.388;2023-03-03T03:37:58;100567.75;;;3.94;77.47
43804;BME280;29430;52.924;-2.388;2023-03-03T03:42:50;100570.03;;;3.89;77.75
43804;BME280;29430;52.924;-2.388;2023-03-03T03:47:42;100567.13;;;3.82;77.54
43804;BME280;29430;52.924;-2.388;2023-03-03T03:52:34;100566.75;;;3.77;77.13
43804;BME280;29430;52.924;-2.388;2023-03-03T03:57:26;100576.63;;;3.76;77.29
43804;BME280;29430;52.924;-2.388;2023-03-03T04:02:18;100561.69;;;3.74;76.93
43804;BME280;29430;52.924;-2.388;2023-03-03T04:07:09;100563.97;;;3.69;76.42
43804;BME280;29430;52.924;-2.388;2023-03-03T04:12:02;100565.75;;;3.60;76.34
43804;BME280;29430;52.924;-2.388;2023-03-03T04:16:53;100566.59;;;3.61;76.23
43804;BME280;29430;52.924;-2.388;2023-03-03T04:21:45;100564.75;;;3.61;76.66
43804;BME280;29430;52.924;-2.388;2023-03-03T04:26:37;100562.91;;;3.62;76.16
43804;BME280;29430;52.924;-2.388;2023-03-03T04:31:28;100567.97;;;3.65;76.11
43804;BME280;29430;52.924;-2.388;2023-03-03T04:36:20;100571.34;;;3.67;75.93
43804;BME280;29430;52.924;-2.388;2023-03-03T04:41:12;100564.28;;;3.66;76.07
43804;BME280;29430;52.924;-2.388;2023-03-03T04:46:03;100560.75;;;3.65;76.26
43804;BME280;29430;52.924;-2.388;2023-03-03T04:50:55;100558.91;;;3.66;76.31
43804;BME280;29430;52.924;-2.388;2023-03-03T04:55:52;100562.63;;;3.65;75.87
43804;BME280;29430;52.924;-2.388;2023-03-03T05:00:53;100566.44;;;3.62;76.84
43804;BME280;29430;52.924;-2.388;2023-03-03T05:05:45;100557.84;;;3.58;76.73
43804;BME280;29430;52.924;-2.388;2023-03-03T05:10:38;100559.53;;;3.59;76.90
43804;BME280;29430;52.924;-2.388;2023-03-03T05:15:30;100563.06;;;3.60;76.99
43804;BME280;29430;52.924;-2.388;2023-03-03T05:20:23;100553.19;;;3.61;76.91
43804;BME280;29430;52.924;-2.388;2023-03-03T05:25:15;100560.38;;;3.60;77.12
43804;BME280;29430;52.924;-2.388;2023-03-03T05:30:07;100568.28;;;3.62;77.04
43804;BME280;29430;52.924;-2.388;2023-03-03T05:34:59;100570.97;;;3.62;76.89
43804;BME280;29430;52.924;-2.388;2023-03-03T05:39:50;100570.69;;;3.55;76.50
43804;BME280;29430;52.924;-2.388;2023-03-03T05:44:42;100577.63;;;3.57;76.97
43804;BME280;29430;52.924;-2.388;2023-03-03T05:49:34;100563.22;;;3.58;76.75
43804;BME280;29430;52.924;-2.388;2023-03-03T05:54:25;100563.91;;;3.61;76.53
43804;BME280;29430;52.924;-2.388;2023-03-03T05:59:17;100571.41;;;3.57;76.41
43804;BME280;29430;52.924;-2.388;2023-03-03T06:04:10;100560.84;;;3.55;76.62
43804;BME280;29430;52.924;-2.388;2023-03-03T06:09:01;100562.66;;;3.55;76.47
43804;BME280;29430;52.924;-2.388;2023-03-03T06:13:53;100572.56;;;3.54;76.42
43804;BME280;29430;52.924;-2.388;2023-03-03T06:18:45;100567.50;;;3.51;75.87
43804;BME280;29430;52.924;-2.388;2023-03-03T06:23:37;100573.00;;;3.50;76.42
43804;BME280;29430;52.924;-2.388;2023-03-03T06:28:29;100580.06;;;3.51;77.14
43804;BME280;29430;52.924;-2.388;2023-03-03T06:33:21;100586.25;;;3.51;77.13
43804;BME280;29430;52.924;-2.388;2023-03-03T06:38:13;100587.09;;;3.52;77.10
43804;BME280;29430;52.924;-2.388;2023-03-03T06:43:04;100600.34;;;3.53;77.02
43804;BME280;29430;52.924;-2.388;2023-03-03T06:47:56;100598.69;;;3.52;76.56
43804;BME280;29430;52.924;-2.388;2023-03-03T06:52:48;100601.09;;;3.46;76.77
43804;BME280;29430;52.924;-2.388;2023-03-03T06:57:40;100612.19;;;3.33;76.01
43804;BME280;29430;52.924;-2.388;2023-03-03T07:02:32;100618.00;;;3.28;76.25
43804;BME280;29430;52.924;-2.388;2023-03-03T07:07:25;100618.00;;;3.28;76.23
43804;BME280;29430;52.924;-2.388;2023-03-03T07:12:19;100614.50;;;3.28;76.15
43804;BME280;29430;52.924;-2.388;2023-03-03T07:17:24;100624.19;;;3.29;76.33
43804;BME280;29430;52.924;-2.388;2023-03-03T07:22:18;100621.50;;;3.29;76.33
43804;BME280;29430;52.924;-2.388;2023-03-03T07:32:14;100632.13;;;3.20;76.49
43804;BME280;29430;52.924;-2.388;2023-03-03T07:37:38;100632.44;;;3.17;76.48
43804;BME280;29430;52.924;-2.388;2023-03-03T07:42:40;100636.81;;;3.18;77.16
43804;BME280;29430;52.924;-2.388;2023-03-03T07:47:37;100642.19;;;3.18;76.87
43804;BME280;29430;52.924;-2.388;2023-03-03T07:52:38;100641.88;;;3.21;77.18
43804;BME280;29430;52.924;-2.388;2023-03-03T07:57:37;100647.25;;;3.21;76.71
43804;BME280;29430;52.924;-2.388;2023-03-03T08:07:49;100646.66;;;3.28;76.18
43804;BME280;29430;52.924;-2.388;2023-03-03T08:12:41;100660.06;;;3.28;76.57
43804;BME280;29430;52.924;-2.388;2023-03-03T08:17:35;100665.97;;;3.31;76.71
43804;BME280;29430;52.924;-2.388;2023-03-03T08:22:33;100668.06;;;3.37;76.75
43804;BME280;29430;52.924;-2.388;2023-03-03T08:27:28;100670.59;;;3.39;76.40
43804;BME280;29430;52.924;-2.388;2023-03-03T08:32:20;100673.28;;;3.39;75.67
43804;BME280;29430;52.924;-2.388;2023-03-03T08:37:12;100677.22;;;3.35;75.56
43804;BME280;29430;52.924;-2.388;2023-03-03T08:42:03;100685.88;;;3.29;75.82
43804;BME280;29430;52.924;-2.388;2023-03-03T08:46:55;100687.72;;;3.28;75.83
43804;BME280;29430;52.924;-2.388;2023-03-03T08:51:47;100689.13;;;3.32;76.89
43804;BME280;29430;52.924;-2.388;2023-03-03T08:56:38;100692.72;;;3.41;76.34
43804;BME280;29430;52.924;-2.388;2023-03-03T09:01:31;100687.78;;;3.46;75.88
43804;BME280;29430;52.924;-2.388;2023-03-03T09:06:23;100686.25;;;3.44;75.89
43804;BME280;29430;52.924;-2.388;2023-03-03T09:11:23;100697.38;;;3.49;75.79
43804;BME280;29430;52.924;-2.388;2023-03-03T09:16:15;100691.16;;;3.48;75.44
43804;BME280;29430;52.924;-2.388;2023-03-03T09:21:25;100695.25;;;3.52;75.81
43804;BME280;29430;52.924;-2.388;2023-03-03T09:26:24;100699.59;;;3.53;76.35
43804;BME280;29430;52.924;-2.388;2023-03-03T09:31:30;100702.72;;;3.58;76.36
43804;BME280;29430;52.924;-2.388;2023-03-03T09:36:34;100700.84;;;3.59;76.60
43804;BME280;29430;52.924;-2.388;2023-03-03T09:41:50;100707.94;;;3.60;76.56
43804;BME280;29430;52.924;-2.388;2023-03-03T09:56:57;100695.88;;;3.64;76.29
43804;BME280;29430;52.924;-2.388;2023-03-03T10:07:40;100700.78;;;3.79;75.61
43804;BME280;29430;52.924;-2.388;2023-03-03T10:18:01;100705.78;;;3.91;75.19
43804;BME280;29430;52.924;-2.388;2023-03-03T10:23:17;100706.16;;;3.97;73.81
43804;BME280;29430;52.924;-2.388;2023-03-03T10:50:20;100719.56;;;4.24;73.90
43804;BME280;29430;52.924;-2.388;2023-03-03T11:20:37;100739.84;;;4.37;73.35
43804;BME280;29430;52.924;-2.388;2023-03-03T11:25:44;100735.31;;;4.37;73.09
43804;BME280;29430;52.924;-2.388;2023-03-03T11:46:14;100754.19;;;4.45;72.76
43804;BME280;29430;52.924;-2.388;2023-03-03T11:51:14;100754.03;;;4.47;72.88
43804;BME280;29430;52.924;-2.388;2023-03-03T11:56:22;100747.53;;;4.50;72.58
43804;BME280;29430;52.924;-2.388;2023-03-03T12:01:19;100746.53;;;4.51;73.32
43804;BME280;29430;52.924;-2.388;2023-03-03T12:11:42;100754.97;;;4.56;73.68
43804;BME280;29430;52.924;-2.388;2023-03-03T12:27:13;100747.22;;;4.71;73.71
43804;BME280;29430;52.924;-2.388;2023-03-03T12:32:21;100743.38;;;4.73;73.53
43804;BME280;29430;52.924;-2.388;2023-03-03T12:42:51;100734.75;;;4.88;73.90
43804;BME280;29430;52.924;-2.388;2023-03-03T12:47:58;100730.63;;;4.93;73.62
43804;BME280;29430;52.924;-2.388;2023-03-03T13:20:02;100723.16;;;5.05;72.51
43804;BME280;29430;52.924;-2.388;2023-03-03T13:40:02;100711.47;;;4.96;72.00
43804;BME280;29430;52.924;-2.388;2023-03-03T13:44:56;100713.50;;;4.94;71.65
43804;BME280;29430;52.924;-2.388;2023-03-03T14:10:46;100696.44;;;5.04;70.69
43804;BME280;29430;52.924;-2.388;2023-03-03T14:21:09;100685.25;;;5.16;70.55
43804;BME280;29430;52.924;-2.388;2023-03-03T14:30:56;100673.34;;;5.19;69.72
43804;BME280;29430;52.924;-2.388;2023-03-03T14:36:01;100681.56;;;5.17;70.01
43804;BME280;29430;52.924;-2.388;2023-03-03T14:51:25;100678.59;;;5.29;70.40
43804;BME280;29430;52.924;-2.388;2023-03-03T14:56:36;100674.41;;;5.34;69.93
43804;BME280;29430;52.924;-2.388;2023-03-03T15:01:33;100665.34;;;5.35;70.55
43804;BME280;29430;52.924;-2.388;2023-03-03T15:06:43;100665.16;;;5.37;70.19
43804;BME280;29430;52.924;-2.388;2023-03-03T15:11:36;100659.78;;;5.37;70.53
43804;BME280;29430;52.924;-2.388;2023-03-03T15:16:31;100653.09;;;5.41;70.49
43804;BME280;29430;52.924;-2.388;2023-03-03T15:21:28;100656.47;;;5.43;70.64
43804;BME280;29430;52.924;-2.388;2023-03-03T15:42:14;100648.34;;;5.35;68.34
43804;BME280;29430;52.924;-2.388;2023-03-03T15:52:54;100643.94;;;5.26;68.30
43804;BME280;29430;52.924;-2.388;2023-03-03T15:58:05;100645.78;;;5.25;68.75
43804;BME280;29430;52.924;-2.388;2023-03-03T16:03:12;100641.88;;;5.19;67.49
43804;BME280;29430;52.924;-2.388;2023-03-03T16:23:51;100640.97;;;5.37;68.29
43804;BME280;29430;52.924;-2.388;2023-03-03T16:39:11;100648.25;;;5.53;67.75
43804;BME280;29430;52.924;-2.388;2023-03-03T16:44:15;100648.63;;;5.58;67.74
43804;BME280;29430;52.924;-2.388;2023-03-03T17:04:51;100635.03;;;5.68;69.68
43804;BME280;29430;52.924;-2.388;2023-03-03T17:25:24;100655.09;;;5.82;72.03
43804;BME280;29430;52.924;-2.388;2023-03-03T17:35:43;100666.22;;;5.87;71.49
43804;BME280;29430;52.924;-2.388;2023-03-03T17:45:39;100676.97;;;5.79;72.11
43804;BME280;29430;52.924;-2.388;2023-03-03T17:51:04;100684.38;;;5.77;72.24
43804;BME280;29430;52.924;-2.388;2023-03-03T17:56:23;100680.66;;;5.78;72.99
43804;BME280;29430;52.924;-2.388;2023-03-03T18:22:30;100702.31;;;5.68;73.00
43804;BME280;29430;52.924;-2.388;2023-03-03T18:32:19;100706.72;;;5.69;73.74
43804;BME280;29430;52.924;-2.388;2023-03-03T18:37:37;100715.94;;;5.66;73.51
43804;BME280;29430;52.924;-2.388;2023-03-03T18:42:37;100719.63;;;5.65;74.36
43804;BME280;29430;52.924;-2.388;2023-03-03T19:03:23;100729.91;;;5.70;74.64
43804;BME280;29430;52.924;-2.388;2023-03-03T19:08:17;100729.06;;;5.69;73.99
43804;BME280;29430;52.924;-2.388;2023-03-03T19:18:32;100724.69;;;5.68;74.88
43804;BME280;29430;52.924;-2.388;2023-03-03T19:23:48;100732.75;;;5.68;74.74
43804;BME280;29430;52.924;-2.388;2023-03-03T19:28:50;100729.06;;;5.69;74.65
43804;BME280;29430;52.924;-2.388;2023-03-03T19:39:10;100728.91;;;5.71;74.38
43804;BME280;29430;52.924;-2.388;2023-03-03T19:44:06;100731.75;;;5.69;74.38
43804;BME280;29430;52.924;-2.388;2023-03-03T20:00:36;100739.16;;;5.67;74.69
43804;BME280;29430;52.924;-2.388;2023-03-03T20:10:51;100737.13;;;5.61;74.69
43804;BME280;29430;52.924;-2.388;2023-03-03T20:20:58;100749.03;;;5.59;74.51
43804;BME280;29430;52.924;-2.388;2023-03-03T20:25:58;100759.97;;;5.57;74.92
43804;BME280;29430;52.924;-2.388;2023-03-03T20:31:02;100756.94;;;5.60;75.15
43804;BME280;29430;52.924;-2.388;2023-03-03T20:36:31;100758.97;;;5.58;75.29
43804;BME280;29430;52.924;-2.388;2023-03-03T20:47:03;100762.34;;;5.60;74.76
43804;BME280;29430;52.924;-2.388;2023-03-03T20:57:24;100772.09;;;5.61;74.26
43804;BME280;29430;52.924;-2.388;2023-03-03T21:07:30;100774.00;;;5.43;75.12
43804;BME280;29430;52.924;-2.388;2023-03-03T21:12:27;100773.63;;;5.37;75.50
43804;BME280;29430;52.924;-2.388;2023-03-03T21:17:25;100779.16;;;5.36;75.25
43804;BME280;29430;52.924;-2.388;2023-03-03T21:22:17;100772.94;;;5.35;75.71
43804;BME280;29430;52.924;-2.388;2023-03-03T21:32:34;100778.00;;;5.38;75.61
43804;BME280;29430;52.924;-2.388;2023-03-03T21:38:04;100786.91;;;5.39;76.03
43804;BME280;29430;52.924;-2.388;2023-03-03T21:42:58;100791.28;;;5.40;76.01
43804;BME280;29430;52.924;-2.388;2023-03-03T21:47:51;100782.72;;;5.36;75.62
43804;BME280;29430;52.924;-2.388;2023-03-03T21:52:45;100794.16;;;5.38;76.31
43804;BME280;29430;52.924;-2.388;2023-03-03T21:57:36;100791.47;;;5.38;76.27
43804;BME280;29430;52.924;-2.388;2023-03-03T22:02:28;100805.25;;;5.44;76.13
43804;BME280;29430;52.924;-2.388;2023-03-03T22:07:20;100804.28;;;5.45;76.21
43804;BME280;29430;52.924;-2.388;2023-03-03T22:12:12;100797.19;;;5.44;75.94
43804;BME280;29430;52.924;-2.388;2023-03-03T22:17:03;100798.91;;;5.45;75.64
43804;BME280;29430;52.924;-2.388;2023-03-03T22:21:55;100796.38;;;5.43;75.30
43804;BME280;29430;52.924;-2.388;2023-03-03T22:26:47;100793.31;;;5.38;74.69
43804;BME280;29430;52.924;-2.388;2023-03-03T22:31:39;100791.94;;;5.34;75.04
43804;BME280;29430;52.924;-2.388;2023-03-03T22:36:30;100787.53;;;5.33;75.31
43804;BME280;29430;52.924;-2.388;2023-03-03T22:41:22;100794.41;;;5.27;75.04
43804;BME280;29430;52.924;-2.388;2023-03-03T22:46:14;100788.19;;;5.27;75.16
43804;BME280;29430;52.924;-2.388;2023-03-03T22:51:06;100792.88;;;5.25;75.17
43804;BME280;29430;52.924;-2.388;2023-03-03T22:55:57;100786.13;;;5.20;75.91
43804;BME280;29430;52.924;-2.388;2023-03-03T23:00:49;100788.41;;;5.15;75.80
43804;BME280;29430;52.924;-2.388;2023-03-03T23:05:41;100787.44;;;5.16;76.08
43804;BME280;29430;52.924;-2.388;2023-03-03T23:10:33;100798.03;;;5.18;76.11
43804;BME280;29430;52.924;-2.388;2023-03-03T23:15:25;100798.34;;;5.15;76.21
43804;BME280;29430;52.924;-2.388;2023-03-03T23:20:22;100809.41;;;5.12;76.50
43804;BME280;29430;52.924;-2.388;2023-03-03T23:25:15;100807.03;;;5.09;76.62
43804;BME280;29430;52.924;-2.388;2023-03-03T23:30:08;100804.34;;;5.09;76.74
43804;BME280;29430;52.924;-2.388;2023-03-03T23:35:00;100809.25;;;5.13;76.21
43804;BME280;29430;52.924;-2.388;2023-03-03T23:39:52;100812.25;;;5.10;75.91
43804;BME280;29430;52.924;-2.388;2023-03-03T23:44:43;100815.09;;;5.09;75.39
43804;BME280;29430;52.924;-2.388;2023-03-03T23:49:36;100815.25;;;5.07;73.53
43804;BME280;29430;52.924;-2.388;2023-03-03T23:54:28;100808.50;;;5.03;72.73
43804;BME280;29430;52.924;-2.388;2023-03-03T23:59:19;100805.66;;;5.05;72.93
